Terminal Aerodrome Forecast
Issued by NWS Flagstaff, AZ

Current Version | Previous Version | Text Only | Print | Product List | Glossary On
Versions: 1 2 3 4 5 6 7 8 9 10 11 12 13 14 15 16 17 18 19 20 21
000
FTUS45 KFGZ 031141
TAFINW
TAF
KINW 031141Z 0312/0412 VRB05KT P6SM BKN100
     FM031930 22011G20KT P6SM SCT080 BKN100
     FM040230 24011KT P6SM BKN100=

USA.gov is the U.S. government's official web portal to all federal, state and local government web resources and services.